Amarant — SPG3207 — position and weather

sailwx.info

Track history (hours):
 
Tides and Currents Weather Stations Pressure Air Temp Water Temp Dewpoint Dewpoint Depression Visibility Wind Speed Wind Dir Waves Ship Positions

Amarant

Last reported at 2017-Apr-16 02:19 UTC. Time now 2017-Apr-27 11:05 UTC.
Position N 40°28' E 002°32'.
Warning: this ship's position is 11 days out of date.

Length 14 m.

Type: Sailing vessel. MMSI: 261015190.

Date/timePositionNaut miles runAvg speedWind from/ knotsBaromVisibWave heightAir tempDewpointWater temp
2017-Apr-16 02:19N 40°28' E 002°32'2 5.5
2017-Apr-16 02:00N 40°26' E 002°33'3 5.5
2017-Apr-16 01:30N 40°23' E 002°35'2 3.7
2017-Apr-16 01:01N 40°22' E 002°35'1 2.6
2017-Apr-16 00:30N 40°20' E 002°36'2 3.5
2017-Apr-15 23:59N 40°19' E 002°37'2 3.8
2017-Apr-15 23:30N 40°17' E 002°37'2 4.9
2017-Apr-15 23:00N 40°15' E 002°39'2 4.9
2017-Apr-15 22:30N 40°12' E 002°39'2 4.8
2017-Apr-15 22:00N 40°10' E 002°41'2 4.5
2017-Apr-15 21:29N 40°08' E 002°41'2 4.8
2017-Apr-15 21:00N 40°06' E 002°42'2 4.4
2017-Apr-15 20:30N 40°04' E 002°43'3 5.2
2017-Apr-15 20:00N 40°01' E 002°44'3 5.7
2017-Apr-15 19:31N 39°58' E 002°45'9 1.9
2017-Apr-15 14:28N 39°49' E 002°42'2 3.0
2017-Apr-15 13:55N 39°48' E 002°42'0 0.0
2017-Apr-15 13:28N 39°48' E 002°42'0 0.0
2017-Apr-15 12:58N 39°48' E 002°42'0 0.0
2017-Apr-15 12:28N 39°48' E 002°42'0 0.0
2017-Apr-15 11:58N 39°48' E 002°42'22 1.1
2017-Apr-14 16:24N 39°27' E 002°31'1 0.1
2017-Apr-13 18:31N 39°28' E 002°32'0 5.4
2017-Apr-13 18:28N 39°29' E 002°32'2 5.0
2017-Apr-13 18:00N 39°29' E 002°35'2 4.2
2017-Apr-13 17:30N 39°30' E 002°37'2 3.6
2017-Apr-13 17:00N 39°30' E 002°40'2 3.4
2017-Apr-13 16:30N 39°31' E 002°39'2 4.0
2017-Apr-13 16:00N 39°33' E 002°38'1 1.2
2017-Apr-13 15:29N 39°34' E 002°38'0 0.0
2017-Apr-13 14:59N 39°34' E 002°38'0 0.0
2017-Apr-13 13:59N 39°34' E 002°38'0 0.0
2017-Apr-12 12:43N 39°34' E 002°38'0 0.0
2017-Apr-12 12:28N 39°34' E 002°38'0 0.0
2017-Apr-12 11:58N 39°34' E 002°38'0 0.0
2017-Apr-12 11:28N 39°34' E 002°38'0 0.0
2017-Apr-12 10:58N 39°34' E 002°38'0 0.0
2017-Apr-12 10:28N 39°34' E 002°38'0 0.0
2017-Apr-12 09:58N 39°34' E 002°38'0 0.0
2017-Apr-12 09:27N 39°34' E 002°38'1 2.5
2017-Apr-12 09:00N 39°33' E 002°39'3 5.9
2017-Apr-12 08:30N 39°31' E 002°36'3 5.9
2017-Apr-12 08:00N 39°29' E 002°33'3 5.7
2017-Apr-12 07:30N 39°27' E 002°31'3 5.1
2017-Apr-12 07:00N 39°25' E 002°28'4 4.5
2017-Apr-12 06:06N 39°22' E 002°25'1 5.4
2017-Apr-12 06:00N 39°22' E 002°24'2 3.7
2017-Apr-12 05:26N 39°20' E 002°22'2 4.1
2017-Apr-12 05:00N 39°19' E 002°20'2 4.0
2017-Apr-12 04:28N 39°18' E 002°18'2 4.1
2017-Apr-12 04:00N 39°17' E 002°16'2 3.8
2017-Apr-12 03:30N 39°16' E 002°14'2 3.2
2017-Apr-12 02:44N 39°15' E 002°11'2 3.4
2017-Apr-12 02:11N 39°14' E 002°09'1 3.9
2017-Apr-12 02:00N 39°13' E 002°08'  
Track history (hours):
 
Tides and Currents Weather Stations Pressure Air Temp Water Temp Dewpoint Dewpoint Depression Visibility Wind Speed Wind Dir Waves Ship Positions

Amarant

Last reported at 2017-Apr-16 02:19 UTC. Time now 2017-Apr-27 11:05 UTC.
Position N 40°28' E 002°32'.
Warning: this ship's position is 11 days out of date.

Length 14 m.

Type: Sailing vessel. MMSI: 261015190.

Date/timePositionNaut miles runAvg speedWind from/ knotsBaromVisibWave heightAir tempDewpointWater temp
2017-Apr-16 02:19N 40°28' E 002°32'2 5.5
2017-Apr-16 02:00N 40°26' E 002°33'3 5.5
2017-Apr-16 01:30N 40°23' E 002°35'2 3.7
2017-Apr-16 01:01N 40°22' E 002°35'1 2.6
2017-Apr-16 00:30N 40°20' E 002°36'2 3.5
2017-Apr-15 23:59N 40°19' E 002°37'2 3.8
2017-Apr-15 23:30N 40°17' E 002°37'2 4.9
2017-Apr-15 23:00N 40°15' E 002°39'2 4.9
2017-Apr-15 22:30N 40°12' E 002°39'2 4.8
2017-Apr-15 22:00N 40°10' E 002°41'2 4.5
2017-Apr-15 21:29N 40°08' E 002°41'2 4.8
2017-Apr-15 21:00N 40°06' E 002°42'2 4.4
2017-Apr-15 20:30N 40°04' E 002°43'3 5.2
2017-Apr-15 20:00N 40°01' E 002°44'3 5.7
2017-Apr-15 19:31N 39°58' E 002°45'9 1.9
2017-Apr-15 14:28N 39°49' E 002°42'2 3.0
2017-Apr-15 13:55N 39°48' E 002°42'0 0.0
2017-Apr-15 13:28N 39°48' E 002°42'0 0.0
2017-Apr-15 12:58N 39°48' E 002°42'0 0.0
2017-Apr-15 12:28N 39°48' E 002°42'0 0.0
2017-Apr-15 11:58N 39°48' E 002°42'22 1.1
2017-Apr-14 16:24N 39°27' E 002°31'1 0.1
2017-Apr-13 18:31N 39°28' E 002°32'0 5.4
2017-Apr-13 18:28N 39°29' E 002°32'2 5.0
2017-Apr-13 18:00N 39°29' E 002°35'2 4.2
2017-Apr-13 17:30N 39°30' E 002°37'2 3.6
2017-Apr-13 17:00N 39°30' E 002°40'2 3.4
2017-Apr-13 16:30N 39°31' E 002°39'2 4.0
2017-Apr-13 16:00N 39°33' E 002°38'1 1.2
2017-Apr-13 15:29N 39°34' E 002°38'0 0.0
2017-Apr-13 14:59N 39°34' E 002°38'0 0.0
2017-Apr-13 13:59N 39°34' E 002°38'0 0.0
2017-Apr-12 12:43N 39°34' E 002°38'0 0.0
2017-Apr-12 12:28N 39°34' E 002°38'0 0.0
2017-Apr-12 11:58N 39°34' E 002°38'0 0.0
2017-Apr-12 11:28N 39°34' E 002°38'0 0.0
2017-Apr-12 10:58N 39°34' E 002°38'0 0.0
2017-Apr-12 10:28N 39°34' E 002°38'0 0.0
2017-Apr-12 09:58N 39°34' E 002°38'0 0.0
2017-Apr-12 09:27N 39°34' E 002°38'1 2.5
2017-Apr-12 09:00N 39°33' E 002°39'3 5.9
2017-Apr-12 08:30N 39°31' E 002°36'3 5.9
2017-Apr-12 08:00N 39°29' E 002°33'3 5.7
2017-Apr-12 07:30N 39°27' E 002°31'3 5.1
2017-Apr-12 07:00N 39°25' E 002°28'4 4.5
2017-Apr-12 06:06N 39°22' E 002°25'1 5.4
2017-Apr-12 06:00N 39°22' E 002°24'2 3.7
2017-Apr-12 05:26N 39°20' E 002°22'2 4.1
2017-Apr-12 05:00N 39°19' E 002°20'2 4.0
2017-Apr-12 04:28N 39°18' E 002°18'2 4.1
2017-Apr-12 04:00N 39°17' E 002°16'2 3.8
2017-Apr-12 03:30N 39°16' E 002°14'2 3.2
2017-Apr-12 02:44N 39°15' E 002°11'2 3.4
2017-Apr-12 02:11N 39°14' E 002°09'1 3.9
2017-Apr-12 02:00N 39°13' E 002°08'  

Dump ship's entire track history